Littleton, CO (80127)

11:02 PM MST on December 26, 2014 (GMT -0700)
Mill Hollow | Change Station
CLOSE
Current Station
Personal Weather Station
Location: Littleton, CO
Elevation: 7125 ft
Nearby Weather Stations

Elev 7125 ft 39.52 °N, 105.16 °W | Updated 1 minute ago

Overcast
Overcast
5.6 °F
Feels Like 6 °F
N
0.0
Wind Variable Wind from SE
Gusts 0.0 mph

Today
High -- | Low -- °F
--% Chance of Precip.
Yesterday
High -- | Low -- °F
Precip. -- in
7:19 AM 4:43 PM
Waxing Crescent, 33% visible
Pressure 30.30 in
Visibility 8.0 miles
Clouds Scattered Clouds 2500 ft
Scattered Clouds 4000 ft
Mostly Cloudy 7000 ft
Windchill 6 °F
Dew Point 2 °F
Humidity 84%
Rainfall 0.05 in
Snow Depth Not available.
UV 0 out of 12
Pollen .10 out of 12
Air Quality Not available.
Flu Activity Not available.
METAR KAPA 270553Z 18003KT 8SM -SN SCT025 SCT040 BKN070 M12/M13 A3006 RMK AO2 SLP258 P0000 60000 T11171128 11094 21122 51014

More Conditions Fewer Conditions

Pressure 30.30 in
Visibility 8.0 miles
Clouds Scattered Clouds 2500 ft
Scattered Clouds 4000 ft
Mostly Cloudy 7000 ft
Windchill 6 °F
Dew Point 2 °F
Humidity 84%
Rainfall 0.05 in
Snow Depth Not available.
UV 0 out of 12
Pollen .10 out of 12
Air Quality Not available.
Flu Activity Not available.
METAR KAPA 270553Z 18003KT 8SM -SN SCT025 SCT040 BKN070 M12/M13 A3006 RMK AO2 SLP258 P0000 60000 T11171128 11094 21122 51014

More Conditions Fewer Conditions

10-Day Weather Forecast

Almanac

Astronomy

Dec. 26, 2014 Rise Set
Actual Time
Civil Twilight
Nautical Twilight
Astronomical Twilight
Moon
Length of Visible Light
Length of Day
Tomorrow will be .
, % of the Moon is Illuminated

Today's Extremes

State Highs State Lows

Community

WunderPhotos

Upload Photos

1,780,853 photos uploaded!

WunderBlogs® & News

Nearby

Air Quality

  Air Quality AQ Index Pollutant
Not available.

Snow Depth

Station Depth Elevation

Earthquake Activity

City Distance Mag. Time & Date
Minimum magnitude displayed is 2.5.

Coastal Water Temperatures

Place Temperature

Nearby Weather Stations